大阪市立科学館学芸員 江越航のホームページ  大阪市立科学館 学芸員

 江越 航のホームページ

大阪市立科学館 屋上ライブカメラ

現在の科学館上空の様子
ライブカメラ

環境データ

過去24時間の環境変化
環境トレンド
凡例
過去1週間の環境変化
気象データ

数値計算データ(NOAA)

海面更正気圧 地表付近の風
海面更正気圧 地表付近の風
850hPa面の温度 850hPa面の相対湿度
850hPa面の温度 850hPa面の相対湿度

定時航空実況気象通報式(METAR)

大阪空港 定時航空実況気象通報式
20日07時00分(JST)
RJOO 192200Z 03003KT 340V060 8000 BR FEW002 SCT003 BKN/// 12/12 Q1025 RMK 1ST002 3ST003 A3028 4000SE-S
ST 層雲
雲量 :1/8
雲底高度 :200 feet
ST 層雲
雲量 :3/8
雲底高度 :300 feet

関西国際空港 定時航空実況気象通報式
20日07時30分(JST)
RJBB 192230Z 06007KT 9999 FEW015 BKN/// 15/14 Q1025 NOSIG

気象庁XML 受信データ

大阪府府県天気予報
2020-10-20T05:00:00+09:00
今日 晴れ

府県天気概況
2020-10-20T04:31:00+09:00
 大阪府は、高気圧に覆われておおむね晴れています。

 20日の大阪府は、高気圧に覆われて晴れるでしょう。

 21日の大阪府は、高気圧に覆われて晴れますが、気圧の谷や湿った空気の影響で夕方から曇る見込みです。

【近畿地方】
 近畿地方は、高気圧に覆われておおむね晴れています。

 20日の近畿地方は、高気圧に覆われておおむね晴れるでしょう。

 21日の近畿地方は、高気圧に覆われて晴れますが、午後は気圧の谷や湿った空気の影響で、次第に曇る見込みです。